sensor_id;sensor_type;location;lat;lon;timestamp;P1;durP1;ratioP1;P2;durP2;ratioP2
80983;SDS011;70442;53.094;8.792;2023-07-13T00:00:10;2.78;;;0.70;;
80983;SDS011;70442;53.094;8.792;2023-07-13T00:02:35;2.13;;;0.90;;
80983;SDS011;70442;53.094;8.792;2023-07-13T00:05:01;2.23;;;1.17;;
80983;SDS011;70442;53.094;8.792;2023-07-13T00:07:26;1.20;;;0.73;;
80983;SDS011;70442;53.094;8.792;2023-07-13T00:09:51;0.83;;;0.70;;
80983;SDS011;70442;53.094;8.792;2023-07-13T00:12:24;1.30;;;0.70;;
80983;SDS011;70442;53.094;8.792;2023-07-13T00:14:55;0.63;;;0.60;;
80983;SDS011;70442;53.094;8.792;2023-07-13T00:17:22;1.38;;;0.70;;
80983;SDS011;70442;53.094;8.792;2023-07-13T00:19:48;1.40;;;1.00;;
80983;SDS011;70442;53.094;8.792;2023-07-13T00:22:13;1.60;;;0.90;;
80983;SDS011;70442;53.094;8.792;2023-07-13T00:24:38;1.57;;;0.70;;
80983;SDS011;70442;53.094;8.792;2023-07-13T00:27:07;0.80;;;0.80;;
80983;SDS011;70442;53.094;8.792;2023-07-13T00:29:33;1.90;;;1.20;;
80983;SDS011;70442;53.094;8.792;2023-07-13T00:31:59;1.77;;;0.90;;
80983;SDS011;70442;53.094;8.792;2023-07-13T00:34:24;1.37;;;0.77;;
80983;SDS011;70442;53.094;8.792;2023-07-13T00:36:50;1.52;;;0.90;;
80983;SDS011;70442;53.094;8.792;2023-07-13T00:39:15;1.77;;;0.70;;
80983;SDS011;70442;53.094;8.792;2023-07-13T00:41:40;2.00;;;0.93;;
80983;SDS011;70442;53.094;8.792;2023-07-13T00:44:08;1.27;;;1.10;;
80983;SDS011;70442;53.094;8.792;2023-07-13T00:46:38;1.33;;;0.80;;
80983;SDS011;70442;53.094;8.792;2023-07-13T00:49:04;1.53;;;0.90;;
80983;SDS011;70442;53.094;8.792;2023-07-13T00:51:35;1.15;;;0.80;;
80983;SDS011;70442;53.094;8.792;2023-07-13T00:54:05;1.17;;;0.68;;
80983;SDS011;70442;53.094;8.792;2023-07-13T00:56:32;3.05;;;1.10;;
80983;SDS011;70442;53.094;8.792;2023-07-13T00:58:58;1.60;;;0.90;;
80983;SDS011;70442;53.094;8.792;2023-07-13T01:01:24;1.45;;;0.85;;
80983;SDS011;70442;53.094;8.792;2023-07-13T01:03:50;1.20;;;0.80;;
80983;SDS011;70442;53.094;8.792;2023-07-13T01:06:15;1.73;;;0.90;;
80983;SDS011;70442;53.094;8.792;2023-07-13T01:08:41;1.33;;;0.90;;
80983;SDS011;70442;53.094;8.792;2023-07-13T01:11:07;1.90;;;0.93;;
80983;SDS011;70442;53.094;8.792;2023-07-13T01:13:33;3.38;;;1.02;;
80983;SDS011;70442;53.094;8.792;2023-07-13T01:15:58;2.87;;;1.30;;
80983;SDS011;70442;53.094;8.792;2023-07-13T01:18:28;1.15;;;0.82;;
80983;SDS011;70442;53.094;8.792;2023-07-13T01:20:55;1.50;;;1.10;;
80983;SDS011;70442;53.094;8.792;2023-07-13T01:23:21;3.05;;;0.90;;
80983;SDS011;70442;53.094;8.792;2023-07-13T01:25:47;1.60;;;0.90;;
80983;SDS011;70442;53.094;8.792;2023-07-13T01:28:12;2.65;;;0.93;;
80983;SDS011;70442;53.094;8.792;2023-07-13T01:30:38;2.20;;;0.70;;
80983;SDS011;70442;53.094;8.792;2023-07-13T01:33:05;1.02;;;0.70;;
80983;SDS011;70442;53.094;8.792;2023-07-13T01:35:34;2.28;;;0.93;;
80983;SDS011;70442;53.094;8.792;2023-07-13T01:38:00;1.40;;;1.00;;
80983;SDS011;70442;53.094;8.792;2023-07-13T01:40:26;1.67;;;0.80;;
80983;SDS011;70442;53.094;8.792;2023-07-13T01:42:51;1.42;;;1.00;;
80983;SDS011;70442;53.094;8.792;2023-07-13T01:45:17;1.60;;;1.07;;
80983;SDS011;70442;53.094;8.792;2023-07-13T01:47:42;1.33;;;0.80;;
80983;SDS011;70442;53.094;8.792;2023-07-13T01:50:07;1.50;;;1.00;;
80983;SDS011;70442;53.094;8.792;2023-07-13T01:52:33;1.13;;;0.90;;
80983;SDS011;70442;53.094;8.792;2023-07-13T01:54:58;1.23;;;0.77;;
80983;SDS011;70442;53.094;8.792;2023-07-13T01:57:24;1.00;;;0.87;;
80983;SDS011;70442;53.094;8.792;2023-07-13T01:59:49;2.70;;;0.90;;
80983;SDS011;70442;53.094;8.792;2023-07-13T02:02:14;1.30;;;0.97;;
80983;SDS011;70442;53.094;8.792;2023-07-13T02:04:40;1.15;;;0.80;;
80983;SDS011;70442;53.094;8.792;2023-07-13T02:07:05;2.33;;;0.97;;
80983;SDS011;70442;53.094;8.792;2023-07-13T02:09:30;1.80;;;0.80;;
80983;SDS011;70442;53.094;8.792;2023-07-13T02:11:56;1.45;;;1.10;;
80983;SDS011;70442;53.094;8.792;2023-07-13T02:14:21;2.00;;;0.97;;
80983;SDS011;70442;53.094;8.792;2023-07-13T02:16:47;2.17;;;0.90;;
80983;SDS011;70442;53.094;8.792;2023-07-13T02:19:13;1.13;;;0.90;;
80983;SDS011;70442;53.094;8.792;2023-07-13T02:21:38;1.37;;;0.87;;
80983;SDS011;70442;53.094;8.792;2023-07-13T02:24:04;1.23;;;0.80;;
80983;SDS011;70442;53.094;8.792;2023-07-13T02:26:29;1.58;;;1.25;;
80983;SDS011;70442;53.094;8.792;2023-07-13T02:28:54;1.53;;;1.00;;
80983;SDS011;70442;53.094;8.792;2023-07-13T02:31:20;1.83;;;0.87;;
80983;SDS011;70442;53.094;8.792;2023-07-13T02:33:45;2.37;;;1.17;;
80983;SDS011;70442;53.094;8.792;2023-07-13T02:36:11;3.50;;;1.10;;
80983;SDS011;70442;53.094;8.792;2023-07-13T02:38:37;2.20;;;1.17;;
80983;SDS011;70442;53.094;8.792;2023-07-13T02:41:05;2.55;;;1.23;;
80983;SDS011;70442;53.094;8.792;2023-07-13T02:43:32;0.98;;;0.75;;
80983;SDS011;70442;53.094;8.792;2023-07-13T02:45:58;2.72;;;0.95;;
80983;SDS011;70442;53.094;8.792;2023-07-13T02:48:29;2.55;;;1.00;;
80983;SDS011;70442;53.094;8.792;2023-07-13T02:50:54;1.23;;;0.77;;
80983;SDS011;70442;53.094;8.792;2023-07-13T02:53:19;2.53;;;1.30;;
80983;SDS011;70442;53.094;8.792;2023-07-13T02:55:44;2.33;;;1.23;;
80983;SDS011;70442;53.094;8.792;2023-07-13T02:58:12;1.20;;;0.90;;
80983;SDS011;70442;53.094;8.792;2023-07-13T03:00:41;3.25;;;0.90;;
80983;SDS011;70442;53.094;8.792;2023-07-13T03:03:08;4.93;;;1.15;;
80983;SDS011;70442;53.094;8.792;2023-07-13T03:05:33;1.57;;;0.80;;
80983;SDS011;70442;53.094;8.792;2023-07-13T03:07:58;2.70;;;0.80;;
80983;SDS011;70442;53.094;8.792;2023-07-13T03:10:24;2.20;;;1.00;;
80983;SDS011;70442;53.094;8.792;2023-07-13T03:12:49;2.03;;;0.90;;
80983;SDS011;70442;53.094;8.792;2023-07-13T03:15:14;1.43;;;0.93;;
80983;SDS011;70442;53.094;8.792;2023-07-13T03:17:40;2.25;;;1.05;;
80983;SDS011;70442;53.094;8.792;2023-07-13T03:20:05;1.37;;;1.00;;
80983;SDS011;70442;53.094;8.792;2023-07-13T03:22:32;3.40;;;1.00;;
80983;SDS011;70442;53.094;8.792;2023-07-13T03:24:57;1.63;;;0.77;;
80983;SDS011;70442;53.094;8.792;2023-07-13T03:27:22;1.60;;;0.90;;
80983;SDS011;70442;53.094;8.792;2023-07-13T03:29:48;1.67;;;0.88;;
80983;SDS011;70442;53.094;8.792;2023-07-13T03:32:13;1.40;;;0.80;;
80983;SDS011;70442;53.094;8.792;2023-07-13T03:34:38;2.20;;;0.80;;
80983;SDS011;70442;53.094;8.792;2023-07-13T03:37:04;1.30;;;0.67;;
80983;SDS011;70442;53.094;8.792;2023-07-13T03:39:29;3.03;;;0.80;;
80983;SDS011;70442;53.094;8.792;2023-07-13T03:41:54;2.20;;;0.80;;
80983;SDS011;70442;53.094;8.792;2023-07-13T03:44:20;2.13;;;0.77;;
80983;SDS011;70442;53.094;8.792;2023-07-13T03:46:45;1.40;;;0.80;;
80983;SDS011;70442;53.094;8.792;2023-07-13T03:49:11;2.13;;;0.83;;
80983;SDS011;70442;53.094;8.792;2023-07-13T03:51:36;2.00;;;0.80;;
80983;SDS011;70442;53.094;8.792;2023-07-13T03:54:01;1.25;;;0.70;;
80983;SDS011;70442;53.094;8.792;2023-07-13T03:56:30;1.00;;;0.65;;
80983;SDS011;70442;53.094;8.792;2023-07-13T03:58:57;2.55;;;0.90;;
80983;SDS011;70442;53.094;8.792;2023-07-13T04:01:23;2.28;;;0.73;;
80983;SDS011;70442;53.094;8.792;2023-07-13T04:06:20;0.75;;;0.60;;
80983;SDS011;70442;53.094;8.792;2023-07-13T04:08:49;1.83;;;0.95;;
80983;SDS011;70442;53.094;8.792;2023-07-13T04:11:15;3.40;;;0.98;;
80983;SDS011;70442;53.094;8.792;2023-07-13T04:13:41;1.27;;;0.50;;
80983;SDS011;70442;53.094;8.792;2023-07-13T04:16:06;2.27;;;1.13;;
80983;SDS011;70442;53.094;8.792;2023-07-13T04:18:31;2.63;;;0.80;;
80983;SDS011;70442;53.094;8.792;2023-07-13T04:20:57;3.13;;;0.87;;
80983;SDS011;70442;53.094;8.792;2023-07-13T04:23:22;0.93;;;0.50;;
80983;SDS011;70442;53.094;8.792;2023-07-13T04:25:48;3.10;;;0.87;;
80983;SDS011;70442;53.094;8.792;2023-07-13T04:28:17;1.33;;;0.60;;
80983;SDS011;70442;53.094;8.792;2023-07-13T04:30:44;3.33;;;0.82;;
80983;SDS011;70442;53.094;8.792;2023-07-13T04:33:09;1.97;;;1.10;;
80983;SDS011;70442;53.094;8.792;2023-07-13T04:35:35;1.00;;;0.50;;
80983;SDS011;70442;53.094;8.792;2023-07-13T04:38:00;3.45;;;0.70;;
80983;SDS011;70442;53.094;8.792;2023-07-13T04:40:26;1.52;;;0.50;;
80983;SDS011;70442;53.094;8.792;2023-07-13T04:42:52;1.63;;;0.90;;
80983;SDS011;70442;53.094;8.792;2023-07-13T04:45:17;2.27;;;0.73;;
80983;SDS011;70442;53.094;8.792;2023-07-13T04:47:42;1.63;;;0.90;;
80983;SDS011;70442;53.094;8.792;2023-07-13T04:50:08;1.13;;;0.40;;
80983;SDS011;70442;53.094;8.792;2023-07-13T04:52:35;3.67;;;0.73;;
80983;SDS011;70442;53.094;8.792;2023-07-13T04:55:01;1.52;;;0.93;;
80983;SDS011;70442;53.094;8.792;2023-07-13T04:57:27;1.20;;;0.60;;
80983;SDS011;70442;53.094;8.792;2023-07-13T04:59:53;2.00;;;0.50;;
80983;SDS011;70442;53.094;8.792;2023-07-13T05:02:18;3.08;;;0.70;;
80983;SDS011;70442;53.094;8.792;2023-07-13T05:04:48;0.52;;;0.35;;
80983;SDS011;70442;53.094;8.792;2023-07-13T05:07:14;1.88;;;0.60;;
80983;SDS011;70442;53.094;8.792;2023-07-13T05:09:39;1.50;;;0.50;;
80983;SDS011;70442;53.094;8.792;2023-07-13T05:12:05;1.38;;;0.43;;
80983;SDS011;70442;53.094;8.792;2023-07-13T05:14:32;2.20;;;0.95;;
80983;SDS011;70442;53.094;8.792;2023-07-13T05:16:57;1.00;;;0.70;;
80983;SDS011;70442;53.094;8.792;2023-07-13T05:19:22;2.40;;;0.70;;
80983;SDS011;70442;53.094;8.792;2023-07-13T05:21:48;1.90;;;0.57;;
80983;SDS011;70442;53.094;8.792;2023-07-13T05:24:13;0.90;;;0.40;;
80983;SDS011;70442;53.094;8.792;2023-07-13T05:26:38;1.03;;;0.57;;
80983;SDS011;70442;53.094;8.792;2023-07-13T05:29:03;1.10;;;0.50;;
80983;SDS011;70442;53.094;8.792;2023-07-13T05:31:29;1.73;;;0.37;;
80983;SDS011;70442;53.094;8.792;2023-07-13T05:33:54;4.60;;;1.02;;
80983;SDS011;70442;53.094;8.792;2023-07-13T05:36:19;1.70;;;0.60;;
80983;SDS011;70442;53.094;8.792;2023-07-13T05:38:45;2.25;;;0.50;;
80983;SDS011;70442;53.094;8.792;2023-07-13T05:41:10;3.13;;;0.60;;
80983;SDS011;70442;53.094;8.792;2023-07-13T05:43:36;1.67;;;0.47;;
80983;SDS011;70442;53.094;8.792;2023-07-13T05:46:01;0.47;;;0.37;;
80983;SDS011;70442;53.094;8.792;2023-07-13T05:48:26;2.40;;;0.87;;
80983;SDS011;70442;53.094;8.792;2023-07-13T05:50:52;1.88;;;0.70;;
80983;SDS011;70442;53.094;8.792;2023-07-13T05:53:17;3.60;;;0.87;;
80983;SDS011;70442;53.094;8.792;2023-07-13T05:55:43;3.00;;;0.90;;
80983;SDS011;70442;53.094;8.792;2023-07-13T05:58:09;1.15;;;0.60;;
80983;SDS011;70442;53.094;8.792;2023-07-13T06:00:35;1.42;;;0.60;;
80983;SDS011;70442;53.094;8.792;2023-07-13T06:03:01;1.33;;;0.53;;
80983;SDS011;70442;53.094;8.792;2023-07-13T06:05:26;1.93;;;0.67;;
80983;SDS011;70442;53.094;8.792;2023-07-13T06:07:53;1.88;;;0.60;;
80983;SDS011;70442;53.094;8.792;2023-07-13T06:10:19;2.83;;;0.90;;
80983;SDS011;70442;53.094;8.792;2023-07-13T06:12:44;1.53;;;0.67;;
80983;SDS011;70442;53.094;8.792;2023-07-13T06:15:10;2.65;;;0.70;;
80983;SDS011;70442;53.094;8.792;2023-07-13T06:17:35;1.63;;;0.75;;
80983;SDS011;70442;53.094;8.792;2023-07-13T06:20:00;1.63;;;0.70;;
80983;SDS011;70442;53.094;8.792;2023-07-13T06:22:26;3.20;;;0.83;;
80983;SDS011;70442;53.094;8.792;2023-07-13T06:24:51;3.63;;;1.00;;
80983;SDS011;70442;53.094;8.792;2023-07-13T06:27:17;2.97;;;0.77;;
80983;SDS011;70442;53.094;8.792;2023-07-13T06:29:42;2.97;;;0.90;;
80983;SDS011;70442;53.094;8.792;2023-07-13T06:32:10;2.45;;;0.82;;
80983;SDS011;70442;53.094;8.792;2023-07-13T06:34:35;3.15;;;0.90;;
80983;SDS011;70442;53.094;8.792;2023-07-13T06:37:00;2.10;;;0.53;;
80983;SDS011;70442;53.094;8.792;2023-07-13T06:39:26;2.00;;;0.67;;
80983;SDS011;70442;53.094;8.792;2023-07-13T06:41:51;1.58;;;0.75;;
80983;SDS011;70442;53.094;8.792;2023-07-13T06:44:16;4.03;;;1.27;;
80983;SDS011;70442;53.094;8.792;2023-07-13T06:46:42;2.07;;;1.13;;
80983;SDS011;70442;53.094;8.792;2023-07-13T06:49:08;2.20;;;0.80;;
80983;SDS011;70442;53.094;8.792;2023-07-13T06:53:59;0.97;;;0.60;;
80983;SDS011;70442;53.094;8.792;2023-07-13T06:56:24;1.13;;;0.77;;
80983;SDS011;70442;53.094;8.792;2023-07-13T06:58:50;2.27;;;0.97;;
80983;SDS011;70442;53.094;8.792;2023-07-13T07:01:15;2.27;;;0.73;;
80983;SDS011;70442;53.094;8.792;2023-07-13T07:03:40;6.33;;;1.10;;
80983;SDS011;70442;53.094;8.792;2023-07-13T07:06:10;1.95;;;0.80;;
80983;SDS011;70442;53.094;8.792;2023-07-13T07:08:39;1.95;;;0.80;;
80983;SDS011;70442;53.094;8.792;2023-07-13T07:11:04;2.30;;;0.57;;
80983;SDS011;70442;53.094;8.792;2023-07-13T07:13:30;1.58;;;0.70;;
80983;SDS011;70442;53.094;8.792;2023-07-13T07:15:55;4.30;;;0.90;;
80983;SDS011;70442;53.094;8.792;2023-07-13T07:18:21;1.17;;;0.57;;
80983;SDS011;70442;53.094;8.792;2023-07-13T07:20:46;1.73;;;0.83;;
80983;SDS011;70442;53.094;8.792;2023-07-13T07:23:11;1.50;;;0.57;;
80983;SDS011;70442;53.094;8.792;2023-07-13T07:25:36;1.37;;;0.60;;
80983;SDS011;70442;53.094;8.792;2023-07-13T07:28:06;2.30;;;0.95;;
80983;SDS011;70442;53.094;8.792;2023-07-13T07:30:32;1.67;;;0.75;;
80983;SDS011;70442;53.094;8.792;2023-07-13T07:32:57;2.90;;;0.90;;
80983;SDS011;70442;53.094;8.792;2023-07-13T07:35:23;3.20;;;1.00;;
80983;SDS011;70442;53.094;8.792;2023-07-13T07:37:49;1.88;;;1.00;;
80983;SDS011;70442;53.094;8.792;2023-07-13T07:40:14;1.03;;;0.67;;
80983;SDS011;70442;53.094;8.792;2023-07-13T07:42:39;1.90;;;0.80;;
80983;SDS011;70442;53.094;8.792;2023-07-13T07:45:05;1.73;;;0.82;;
80983;SDS011;70442;53.094;8.792;2023-07-13T07:47:30;2.13;;;0.93;;
80983;SDS011;70442;53.094;8.792;2023-07-13T07:49:56;2.57;;;1.23;;
80983;SDS011;70442;53.094;8.792;2023-07-13T07:52:21;2.90;;;0.65;;
80983;SDS011;70442;53.094;8.792;2023-07-13T07:54:47;1.20;;;0.93;;
80983;SDS011;70442;53.094;8.792;2023-07-13T07:57:12;1.95;;;0.90;;
80983;SDS011;70442;53.094;8.792;2023-07-13T07:59:37;2.33;;;1.20;;
80983;SDS011;70442;53.094;8.792;2023-07-13T08:02:03;5.88;;;1.30;;
80983;SDS011;70442;53.094;8.792;2023-07-13T08:04:29;1.98;;;0.77;;
80983;SDS011;70442;53.094;8.792;2023-07-13T08:06:54;1.20;;;0.75;;
80983;SDS011;70442;53.094;8.792;2023-07-13T08:09:21;2.00;;;0.75;;
80983;SDS011;70442;53.094;8.792;2023-07-13T08:11:46;2.15;;;0.73;;
80983;SDS011;70442;53.094;8.792;2023-07-13T08:14:12;4.80;;;0.80;;
80983;SDS011;70442;53.094;8.792;2023-07-13T08:16:37;4.63;;;1.00;;
80983;SDS011;70442;53.094;8.792;2023-07-13T08:19:03;1.73;;;0.80;;
80983;SDS011;70442;53.094;8.792;2023-07-13T08:21:29;2.58;;;1.20;;
80983;SDS011;70442;53.094;8.792;2023-07-13T08:23:55;1.55;;;0.60;;
80983;SDS011;70442;53.094;8.792;2023-07-13T08:26:20;1.13;;;0.70;;
80983;SDS011;70442;53.094;8.792;2023-07-13T08:28:46;1.77;;;0.80;;
80983;SDS011;70442;53.094;8.792;2023-07-13T08:31:12;3.05;;;1.13;;
80983;SDS011;70442;53.094;8.792;2023-07-13T08:33:38;2.42;;;0.73;;
80983;SDS011;70442;53.094;8.792;2023-07-13T08:36:05;2.78;;;0.88;;
80983;SDS011;70442;53.094;8.792;2023-07-13T08:38:31;1.35;;;0.65;;
80983;SDS011;70442;53.094;8.792;2023-07-13T08:40:56;0.98;;;0.70;;
80983;SDS011;70442;53.094;8.792;2023-07-13T08:43:26;2.13;;;1.00;;
80983;SDS011;70442;53.094;8.792;2023-07-13T08:48:47;2.80;;;0.68;;
80983;SDS011;70442;53.094;8.792;2023-07-13T08:56:19;1.17;;;0.88;;
80983;SDS011;70442;53.094;8.792;2023-07-13T08:58:48;1.85;;;0.98;;
80983;SDS011;70442;53.094;8.792;2023-07-13T09:04:08;1.75;;;0.90;;
80983;SDS011;70442;53.094;8.792;2023-07-13T09:06:39;1.48;;;0.73;;
80983;SDS011;70442;53.094;8.792;2023-07-13T09:12:14;1.30;;;0.88;;
80983;SDS011;70442;53.094;8.792;2023-07-13T09:14:45;0.93;;;0.70;;
80983;SDS011;70442;53.094;8.792;2023-07-13T09:17:21;1.25;;;0.70;;
80983;SDS011;70442;53.094;8.792;2023-07-13T09:20:11;1.10;;;0.80;;
80983;SDS011;70442;53.094;8.792;2023-07-13T09:22:45;0.80;;;0.60;;
80983;SDS011;70442;53.094;8.792;2023-07-13T09:27:51;1.23;;;0.93;;
80983;SDS011;70442;53.094;8.792;2023-07-13T09:33:18;2.17;;;0.90;;
80983;SDS011;70442;53.094;8.792;2023-07-13T09:35:44;3.55;;;0.70;;
80983;SDS011;70442;53.094;8.792;2023-07-13T09:38:13;2.43;;;0.73;;
80983;SDS011;70442;53.094;8.792;2023-07-13T09:43:08;0.77;;;0.65;;
80983;SDS011;70442;53.094;8.792;2023-07-13T09:45:36;0.98;;;0.50;;
80983;SDS011;70442;53.094;8.792;2023-07-13T09:48:06;1.05;;;0.50;;
80983;SDS011;70442;53.094;8.792;2023-07-13T09:50:35;1.58;;;0.65;;
80983;SDS011;70442;53.094;8.792;2023-07-13T09:53:00;1.65;;;0.85;;
80983;SDS011;70442;53.094;8.792;2023-07-13T09:55:29;1.90;;;0.90;;
80983;SDS011;70442;53.094;8.792;2023-07-13T09:57:56;1.65;;;0.60;;
80983;SDS011;70442;53.094;8.792;2023-07-13T10:00:27;1.98;;;0.80;;
80983;SDS011;70442;53.094;8.792;2023-07-13T10:03:01;1.38;;;0.60;;
80983;SDS011;70442;53.094;8.792;2023-07-13T10:05:32;1.05;;;0.47;;
80983;SDS011;70442;53.094;8.792;2023-07-13T10:08:02;0.77;;;0.73;;
80983;SDS011;70442;53.094;8.792;2023-07-13T10:10:28;1.05;;;0.55;;
80983;SDS011;70442;53.094;8.792;2023-07-13T10:12:53;1.50;;;0.50;;
80983;SDS011;70442;53.094;8.792;2023-07-13T10:15:20;2.10;;;0.77;;
80983;SDS011;70442;53.094;8.792;2023-07-13T10:17:48;1.48;;;0.55;;
80983;SDS011;70442;53.094;8.792;2023-07-13T10:20:15;1.23;;;0.70;;
80983;SDS011;70442;53.094;8.792;2023-07-13T10:22:44;1.88;;;0.63;;
80983;SDS011;70442;53.094;8.792;2023-07-13T10:25:16;2.75;;;0.77;;
80983;SDS011;70442;53.094;8.792;2023-07-13T10:27:47;2.15;;;0.98;;
80983;SDS011;70442;53.094;8.792;2023-07-13T10:30:21;1.50;;;0.47;;
80983;SDS011;70442;53.094;8.792;2023-07-13T10:32:50;0.60;;;0.45;;
80983;SDS011;70442;53.094;8.792;2023-07-13T10:35:17;1.92;;;0.90;;
80983;SDS011;70442;53.094;8.792;2023-07-13T10:37:49;2.35;;;0.68;;
80983;SDS011;70442;53.094;8.792;2023-07-13T10:40:39;1.15;;;0.60;;
80983;SDS011;70442;53.094;8.792;2023-07-13T10:43:22;1.38;;;0.65;;
80983;SDS011;70442;53.094;8.792;2023-07-13T10:45:55;1.30;;;0.63;;
80983;SDS011;70442;53.094;8.792;2023-07-13T10:48:21;0.73;;;0.40;;
80983;SDS011;70442;53.094;8.792;2023-07-13T10:50:49;0.52;;;0.43;;
80983;SDS011;70442;53.094;8.792;2023-07-13T10:58:36;0.55;;;0.40;;
80983;SDS011;70442;53.094;8.792;2023-07-13T11:01:12;0.63;;;0.30;;
80983;SDS011;70442;53.094;8.792;2023-07-13T11:03:50;0.88;;;0.40;;
80983;SDS011;70442;53.094;8.792;2023-07-13T11:11:53;1.13;;;0.70;;
80983;SDS011;70442;53.094;8.792;2023-07-13T11:17:25;1.02;;;0.63;;
80983;SDS011;70442;53.094;8.792;2023-07-13T11:22:45;1.08;;;0.50;;
80983;SDS011;70442;53.094;8.792;2023-07-13T11:27:52;1.58;;;0.40;;
80983;SDS011;70442;53.094;8.792;2023-07-13T11:30:36;0.90;;;0.60;;
80983;SDS011;70442;53.094;8.792;2023-07-13T11:33:13;0.98;;;0.45;;
80983;SDS011;70442;53.094;8.792;2023-07-13T11:38:22;1.17;;;0.50;;
80983;SDS011;70442;53.094;8.792;2023-07-13T11:40:50;1.20;;;0.63;;
80983;SDS011;70442;53.094;8.792;2023-07-13T11:43:18;1.05;;;0.30;;
80983;SDS011;70442;53.094;8.792;2023-07-13T11:45:44;0.40;;;0.33;;
80983;SDS011;70442;53.094;8.792;2023-07-13T11:48:17;0.35;;;0.22;;
80983;SDS011;70442;53.094;8.792;2023-07-13T11:50:49;0.45;;;0.25;;
80983;SDS011;70442;53.094;8.792;2023-07-13T11:53:16;0.40;;;0.30;;
80983;SDS011;70442;53.094;8.792;2023-07-13T11:55:42;1.10;;;0.25;;
80983;SDS011;70442;53.094;8.792;2023-07-13T11:58:07;0.22;;;0.20;;
80983;SDS011;70442;53.094;8.792;2023-07-13T12:00:34;2.50;;;0.47;;
80983;SDS011;70442;53.094;8.792;2023-07-13T12:03:00;0.43;;;0.20;;
80983;SDS011;70442;53.094;8.792;2023-07-13T12:05:27;0.50;;;0.20;;
80983;SDS011;70442;53.094;8.792;2023-07-13T12:10:30;0.40;;;0.20;;
80983;SDS011;70442;53.094;8.792;2023-07-13T12:12:58;0.38;;;0.20;;
80983;SDS011;70442;53.094;8.792;2023-07-13T12:15:44;0.88;;;0.30;;
80983;SDS011;70442;53.094;8.792;2023-07-13T12:18:13;0.10;;;0.10;;
80983;SDS011;70442;53.094;8.792;2023-07-13T12:20:40;0.35;;;0.25;;
80983;SDS011;70442;53.094;8.792;2023-07-13T12:23:06;1.25;;;0.50;;
80983;SDS011;70442;53.094;8.792;2023-07-13T12:28:20;0.95;;;0.38;;
80983;SDS011;70442;53.094;8.792;2023-07-13T12:31:07;0.63;;;0.50;;
80983;SDS011;70442;53.094;8.792;2023-07-13T12:33:44;0.60;;;0.40;;
80983;SDS011;70442;53.094;8.792;2023-07-13T12:36:09;0.63;;;0.30;;
80983;SDS011;70442;53.094;8.792;2023-07-13T12:41:02;0.60;;;0.30;;
80983;SDS011;70442;53.094;8.792;2023-07-13T12:43:28;0.60;;;0.22;;
80983;SDS011;70442;53.094;8.792;2023-07-13T12:48:24;0.80;;;0.20;;
80983;SDS011;70442;53.094;8.792;2023-07-13T12:50:50;0.50;;;0.20;;
80983;SDS011;70442;53.094;8.792;2023-07-13T12:53:19;0.85;;;0.38;;
80983;SDS011;70442;53.094;8.792;2023-07-13T12:55:47;0.50;;;0.25;;
80983;SDS011;70442;53.094;8.792;2023-07-13T12:58:17;0.57;;;0.30;;
80983;SDS011;70442;53.094;8.792;2023-07-13T13:00:50;0.45;;;0.22;;
80983;SDS011;70442;53.094;8.792;2023-07-13T13:08:43;0.55;;;0.28;;
80983;SDS011;70442;53.094;8.792;2023-07-13T13:11:14;0.20;;;0.10;;
80983;SDS011;70442;53.094;8.792;2023-07-13T13:13:43;1.25;;;0.20;;
80983;SDS011;70442;53.094;8.792;2023-07-13T13:16:22;0.38;;;0.20;;
80983;SDS011;70442;53.094;8.792;2023-07-13T13:18:51;1.30;;;0.40;;
80983;SDS011;70442;53.094;8.792;2023-07-13T13:21:17;0.57;;;0.30;;
80983;SDS011;70442;53.094;8.792;2023-07-13T13:23:43;0.60;;;0.30;;
80983;SDS011;70442;53.094;8.792;2023-07-13T13:26:10;1.23;;;0.30;;
80983;SDS011;70442;53.094;8.792;2023-07-13T13:28:40;0.52;;;0.30;;
80983;SDS011;70442;53.094;8.792;2023-07-13T13:31:07;0.85;;;0.30;;
80983;SDS011;70442;53.094;8.792;2023-07-13T13:33:34;0.40;;;0.20;;
80983;SDS011;70442;53.094;8.792;2023-07-13T13:35:59;0.73;;;0.43;;
80983;SDS011;70442;53.094;8.792;2023-07-13T13:38:26;0.40;;;0.22;;
80983;SDS011;70442;53.094;8.792;2023-07-13T13:40:52;0.47;;;0.30;;
80983;SDS011;70442;53.094;8.792;2023-07-13T13:43:18;0.30;;;0.25;;
80983;SDS011;70442;53.094;8.792;2023-07-13T13:45:46;0.70;;;0.40;;
80983;SDS011;70442;53.094;8.792;2023-07-13T13:48:19;0.52;;;0.40;;
80983;SDS011;70442;53.094;8.792;2023-07-13T13:50:47;1.20;;;0.47;;
80983;SDS011;70442;53.094;8.792;2023-07-13T13:53:12;0.50;;;0.40;;
80983;SDS011;70442;53.094;8.792;2023-07-13T13:55:39;0.80;;;0.52;;
80983;SDS011;70442;53.094;8.792;2023-07-13T13:58:07;0.73;;;0.40;;
80983;SDS011;70442;53.094;8.792;2023-07-13T14:00:33;0.43;;;0.40;;
80983;SDS011;70442;53.094;8.792;2023-07-13T14:02:59;0.32;;;0.20;;
80983;SDS011;70442;53.094;8.792;2023-07-13T14:05:25;0.40;;;0.30;;
80983;SDS011;70442;53.094;8.792;2023-07-13T14:07:55;1.55;;;0.55;;
80983;SDS011;70442;53.094;8.792;2023-07-13T14:10:21;1.08;;;0.30;;
80983;SDS011;70442;53.094;8.792;2023-07-13T14:12:48;1.07;;;0.50;;
80983;SDS011;70442;53.094;8.792;2023-07-13T14:15:26;2.15;;;0.60;;
80983;SDS011;70442;53.094;8.792;2023-07-13T14:17:53;0.47;;;0.40;;
80983;SDS011;70442;53.094;8.792;2023-07-13T14:20:19;0.98;;;0.80;;
80983;SDS011;70442;53.094;8.792;2023-07-13T14:22:46;0.60;;;0.30;;
80983;SDS011;70442;53.094;8.792;2023-07-13T14:25:12;0.82;;;0.50;;
80983;SDS011;70442;53.094;8.792;2023-07-13T14:27:38;0.88;;;0.57;;
80983;SDS011;70442;53.094;8.792;2023-07-13T14:30:07;0.60;;;0.40;;
80983;SDS011;70442;53.094;8.792;2023-07-13T14:32:44;1.17;;;0.60;;
80983;SDS011;70442;53.094;8.792;2023-07-13T14:35:10;0.93;;;0.55;;
80983;SDS011;70442;53.094;8.792;2023-07-13T14:37:37;0.50;;;0.40;;
80983;SDS011;70442;53.094;8.792;2023-07-13T14:40:04;1.05;;;0.65;;
80983;SDS011;70442;53.094;8.792;2023-07-13T14:42:37;0.82;;;0.55;;
80983;SDS011;70442;53.094;8.792;2023-07-13T14:45:02;0.73;;;0.30;;
80983;SDS011;70442;53.094;8.792;2023-07-13T14:47:28;1.08;;;0.50;;
80983;SDS011;70442;53.094;8.792;2023-07-13T14:49:53;1.40;;;0.50;;
80983;SDS011;70442;53.094;8.792;2023-07-13T14:52:19;1.42;;;0.65;;
80983;SDS011;70442;53.094;8.792;2023-07-13T14:54:46;1.70;;;0.88;;
80983;SDS011;70442;53.094;8.792;2023-07-13T14:57:12;0.95;;;0.60;;
80983;SDS011;70442;53.094;8.792;2023-07-13T14:59:39;0.75;;;0.40;;
80983;SDS011;70442;53.094;8.792;2023-07-13T15:02:47;1.33;;;0.70;;
80983;SDS011;70442;53.094;8.792;2023-07-13T15:04:54;0.73;;;0.50;;
80983;SDS011;70442;53.094;8.792;2023-07-13T15:07:20;2.17;;;0.60;;
80983;SDS011;70442;53.094;8.792;2023-07-13T15:09:46;0.77;;;0.40;;
80983;SDS011;70442;53.094;8.792;2023-07-13T15:14:37;0.97;;;0.30;;
80983;SDS011;70442;53.094;8.792;2023-07-13T15:17:03;0.98;;;0.47;;
80983;SDS011;70442;53.094;8.792;2023-07-13T15:19:30;0.28;;;0.20;;
80983;SDS011;70442;53.094;8.792;2023-07-13T15:21:56;0.65;;;0.30;;
80983;SDS011;70442;53.094;8.792;2023-07-13T15:24:22;0.22;;;0.20;;
80983;SDS011;70442;53.094;8.792;2023-07-13T15:26:48;1.23;;;0.70;;
80983;SDS011;70442;53.094;8.792;2023-07-13T15:29:14;1.00;;;0.40;;
80983;SDS011;70442;53.094;8.792;2023-07-13T15:31:40;0.50;;;0.40;;
80983;SDS011;70442;53.094;8.792;2023-07-13T15:34:09;1.23;;;0.70;;
80983;SDS011;70442;53.094;8.792;2023-07-13T15:36:37;0.82;;;0.47;;
80983;SDS011;70442;53.094;8.792;2023-07-13T15:39:02;1.10;;;0.50;;
80983;SDS011;70442;53.094;8.792;2023-07-13T15:41:27;0.88;;;0.10;;
80983;SDS011;70442;53.094;8.792;2023-07-13T15:43:55;0.10;;;0.00;;
80983;SDS011;70442;53.094;8.792;2023-07-13T15:46:24;1.17;;;0.30;;
80983;SDS011;70442;53.094;8.792;2023-07-13T15:48:51;0.50;;;0.10;;
80983;SDS011;70442;53.094;8.792;2023-07-13T15:51:24;0.55;;;0.32;;
80983;SDS011;70442;53.094;8.792;2023-07-13T15:53:55;0.28;;;0.20;;